sensor_id;sensor_type;location;lat;lon;timestamp;P1;durP1;ratioP1;P2;durP2;ratioP2
17449;SDS011;8842;51.244;7.102;2023-05-15T00:01:29;10.83;;;10.23;;
17449;SDS011;8842;51.244;7.102;2023-05-15T00:06:40;10.70;;;10.10;;
17449;SDS011;8842;51.244;7.102;2023-05-15T00:11:45;11.20;;;10.60;;
17449;SDS011;8842;51.244;7.102;2023-05-15T00:16:57;11.10;;;10.50;;
17449;SDS011;8842;51.244;7.102;2023-05-15T00:22:01;11.30;;;10.70;;
17449;SDS011;8842;51.244;7.102;2023-05-15T00:27:12;10.80;;;10.20;;
17449;SDS011;8842;51.244;7.102;2023-05-15T00:32:17;10.60;;;10.00;;
17449;SDS011;8842;51.244;7.102;2023-05-15T00:37:21;10.50;;;10.00;;
17449;SDS011;8842;51.244;7.102;2023-05-15T00:42:25;11.13;;;10.53;;
17449;SDS011;8842;51.244;7.102;2023-05-15T00:47:38;10.70;;;10.10;;
17449;SDS011;8842;51.244;7.102;2023-05-15T00:52:44;10.70;;;10.10;;
17449;SDS011;8842;51.244;7.102;2023-05-15T00:57:56;10.90;;;10.30;;
17449;SDS011;8842;51.244;7.102;2023-05-15T01:03:00;10.47;;;9.97;;
17449;SDS011;8842;51.244;7.102;2023-05-15T01:08:15;10.70;;;10.00;;
17449;SDS011;8842;51.244;7.102;2023-05-15T01:13:22;10.70;;;10.10;;
17449;SDS011;8842;51.244;7.102;2023-05-15T01:18:34;10.10;;;9.60;;
17449;SDS011;8842;51.244;7.102;2023-05-15T01:23:43;10.13;;;9.63;;
17449;SDS011;8842;51.244;7.102;2023-05-15T01:28:56;10.63;;;10.03;;
17449;SDS011;8842;51.244;7.102;2023-05-15T01:39:14;10.50;;;9.90;;
17449;SDS011;8842;51.244;7.102;2023-05-15T01:44:25;10.10;;;9.60;;
17449;SDS011;8842;51.244;7.102;2023-05-15T01:49:39;10.10;;;9.60;;
17449;SDS011;8842;51.244;7.102;2023-05-15T01:59:56;9.90;;;9.40;;
17449;SDS011;8842;51.244;7.102;2023-05-15T02:10:13;9.63;;;9.13;;
17449;SDS011;8842;51.244;7.102;2023-05-15T02:15:19;10.03;;;9.43;;
17449;SDS011;8842;51.244;7.102;2023-05-15T02:25:37;10.17;;;9.67;;
17449;SDS011;8842;51.244;7.102;2023-05-15T02:30:48;10.00;;;9.50;;
17449;SDS011;8842;51.244;7.102;2023-05-15T02:35:54;10.10;;;9.60;;
17449;SDS011;8842;51.244;7.102;2023-05-15T02:41:01;10.20;;;9.70;;
17449;SDS011;8842;51.244;7.102;2023-05-15T02:46:16;9.97;;;9.47;;
17449;SDS011;8842;51.244;7.102;2023-05-15T02:51:21;10.40;;;9.80;;
17449;SDS011;8842;51.244;7.102;2023-05-15T02:56:26;10.60;;;10.00;;
17449;SDS011;8842;51.244;7.102;2023-05-15T03:01:30;10.40;;;9.90;;
17449;SDS011;8842;51.244;7.102;2023-05-15T03:06:42;10.40;;;9.90;;
17449;SDS011;8842;51.244;7.102;2023-05-15T03:16:59;10.70;;;10.10;;
17449;SDS011;8842;51.244;7.102;2023-05-15T03:22:03;11.20;;;10.60;;
17449;SDS011;8842;51.244;7.102;2023-05-15T03:27:15;10.97;;;10.37;;
17449;SDS011;8842;51.244;7.102;2023-05-15T03:32:20;11.97;;;11.23;;
17449;SDS011;8842;51.244;7.102;2023-05-15T03:37:32;11.13;;;10.53;;
17449;SDS011;8842;51.244;7.102;2023-05-15T03:42:44;11.63;;;10.93;;
17449;SDS011;8842;51.244;7.102;2023-05-15T03:47:48;11.40;;;10.70;;
17449;SDS011;8842;51.244;7.102;2023-05-15T03:53:00;11.40;;;10.60;;
17449;SDS011;8842;51.244;7.102;2023-05-15T03:58:12;12.20;;;11.30;;
17449;SDS011;8842;51.244;7.102;2023-05-15T04:03:16;11.53;;;10.83;;
17449;SDS011;8842;51.244;7.102;2023-05-15T04:08:30;12.73;;;11.63;;
17449;SDS011;8842;51.244;7.102;2023-05-15T04:13:34;11.73;;;10.90;;
17449;SDS011;8842;51.244;7.102;2023-05-15T04:18:46;11.83;;;11.03;;
17449;SDS011;8842;51.244;7.102;2023-05-15T04:23:50;13.33;;;12.33;;
17449;SDS011;8842;51.244;7.102;2023-05-15T04:28:54;13.73;;;12.13;;
17449;SDS011;8842;51.244;7.102;2023-05-15T04:34:05;12.40;;;11.50;;
17449;SDS011;8842;51.244;7.102;2023-05-15T04:39:09;14.83;;;13.80;;
17449;SDS011;8842;51.244;7.102;2023-05-15T04:44:21;13.60;;;12.77;;
17449;SDS011;8842;51.244;7.102;2023-05-15T04:49:25;14.30;;;13.13;;
17449;SDS011;8842;51.244;7.102;2023-05-15T04:54:37;13.27;;;12.57;;
17449;SDS011;8842;51.244;7.102;2023-05-15T04:59:41;14.63;;;13.67;;
17449;SDS011;8842;51.244;7.102;2023-05-15T05:04:55;14.33;;;13.53;;
17449;SDS011;8842;51.244;7.102;2023-05-15T05:09:59;14.00;;;13.20;;
17449;SDS011;8842;51.244;7.102;2023-05-15T05:15:12;14.70;;;13.70;;
17449;SDS011;8842;51.244;7.102;2023-05-15T05:20:17;14.07;;;13.03;;
17449;SDS011;8842;51.244;7.102;2023-05-15T05:25:21;13.70;;;12.70;;
17449;SDS011;8842;51.244;7.102;2023-05-15T05:30:25;13.30;;;12.50;;
17449;SDS011;8842;51.244;7.102;2023-05-15T05:35:29;14.93;;;13.73;;
17449;SDS011;8842;51.244;7.102;2023-05-15T05:40:34;14.80;;;13.90;;
17449;SDS011;8842;51.244;7.102;2023-05-15T05:45:47;14.10;;;13.20;;
17449;SDS011;8842;51.244;7.102;2023-05-15T05:50:52;15.13;;;13.93;;
17449;SDS011;8842;51.244;7.102;2023-05-15T05:56:03;15.70;;;14.27;;
17449;SDS011;8842;51.244;7.102;2023-05-15T06:06:19;13.00;;;12.23;;
17449;SDS011;8842;51.244;7.102;2023-05-15T06:11:24;13.77;;;12.87;;
17449;SDS011;8842;51.244;7.102;2023-05-15T06:16:35;13.53;;;12.70;;
17449;SDS011;8842;51.244;7.102;2023-05-15T06:21:39;13.70;;;12.50;;
17449;SDS011;8842;51.244;7.102;2023-05-15T06:26:51;13.43;;;12.50;;
17449;SDS011;8842;51.244;7.102;2023-05-15T06:31:56;14.17;;;13.17;;
17449;SDS011;8842;51.244;7.102;2023-05-15T06:37:07;14.50;;;13.23;;
17449;SDS011;8842;51.244;7.102;2023-05-15T06:42:12;13.50;;;12.53;;
17449;SDS011;8842;51.244;7.102;2023-05-15T06:47:24;16.10;;;12.83;;
17449;SDS011;8842;51.244;7.102;2023-05-15T06:52:28;13.40;;;12.60;;
17449;SDS011;8842;51.244;7.102;2023-05-15T06:57:32;17.00;;;13.63;;
17449;SDS011;8842;51.244;7.102;2023-05-15T07:02:36;12.90;;;12.10;;
17449;SDS011;8842;51.244;7.102;2023-05-15T07:07:40;13.23;;;12.37;;
17449;SDS011;8842;51.244;7.102;2023-05-15T07:12:52;14.37;;;13.37;;
17449;SDS011;8842;51.244;7.102;2023-05-15T07:17:57;14.70;;;13.20;;
17449;SDS011;8842;51.244;7.102;2023-05-15T07:23:01;15.57;;;13.20;;
17449;SDS011;8842;51.244;7.102;2023-05-15T07:28:05;14.97;;;13.87;;
17449;SDS011;8842;51.244;7.102;2023-05-15T07:33:17;12.70;;;11.90;;
17449;SDS011;8842;51.244;7.102;2023-05-15T07:38:21;14.77;;;13.03;;
17449;SDS011;8842;51.244;7.102;2023-05-15T07:43:25;14.60;;;13.40;;
17449;SDS011;8842;51.244;7.102;2023-05-15T07:48:37;13.27;;;12.37;;
17449;SDS011;8842;51.244;7.102;2023-05-15T07:53:41;14.43;;;13.43;;
17449;SDS011;8842;51.244;7.102;2023-05-15T07:58:53;13.43;;;12.57;;
17449;SDS011;8842;51.244;7.102;2023-05-15T08:03:57;12.43;;;11.50;;
17449;SDS011;8842;51.244;7.102;2023-05-15T08:09:01;13.17;;;12.23;;
17449;SDS011;8842;51.244;7.102;2023-05-15T08:14:05;14.37;;;13.07;;
17449;SDS011;8842;51.244;7.102;2023-05-15T08:19:16;13.07;;;12.20;;
17449;SDS011;8842;51.244;7.102;2023-05-15T08:24:20;13.83;;;12.73;;
17449;SDS011;8842;51.244;7.102;2023-05-15T08:29:25;15.47;;;13.87;;
17449;SDS011;8842;51.244;7.102;2023-05-15T08:34:29;15.27;;;14.17;;
17449;SDS011;8842;51.244;7.102;2023-05-15T08:39:41;14.70;;;13.20;;
17449;SDS011;8842;51.244;7.102;2023-05-15T08:44:45;13.27;;;12.30;;
17449;SDS011;8842;51.244;7.102;2023-05-15T08:49:59;14.03;;;12.83;;
17449;SDS011;8842;51.244;7.102;2023-05-15T08:55:07;12.97;;;12.07;;
17449;SDS011;8842;51.244;7.102;2023-05-15T09:00:20;13.67;;;12.57;;
17449;SDS011;8842;51.244;7.102;2023-05-15T09:05:25;13.77;;;12.83;;
17449;SDS011;8842;51.244;7.102;2023-05-15T09:10:36;13.40;;;12.60;;
17449;SDS011;8842;51.244;7.102;2023-05-15T09:20:52;14.00;;;13.10;;
17449;SDS011;8842;51.244;7.102;2023-05-15T09:25:56;12.90;;;12.10;;
17449;SDS011;8842;51.244;7.102;2023-05-15T09:31:08;13.30;;;12.27;;
17449;SDS011;8842;51.244;7.102;2023-05-15T09:36:14;14.40;;;13.10;;
17449;SDS011;8842;51.244;7.102;2023-05-15T09:41:27;13.27;;;12.47;;
17449;SDS011;8842;51.244;7.102;2023-05-15T09:46:33;12.77;;;12.07;;
17449;SDS011;8842;51.244;7.102;2023-05-15T09:51:46;13.97;;;12.87;;
17449;SDS011;8842;51.244;7.102;2023-05-15T09:56:52;12.90;;;12.10;;
17449;SDS011;8842;51.244;7.102;2023-05-15T10:02:04;13.58;;;12.68;;
17449;SDS011;8842;51.244;7.102;2023-05-15T10:07:08;13.28;;;12.30;;
17449;SDS011;8842;51.244;7.102;2023-05-15T10:12:22;13.90;;;12.98;;
17449;SDS011;8842;51.244;7.102;2023-05-15T10:17:27;14.00;;;13.08;;
17449;SDS011;8842;51.244;7.102;2023-05-15T10:22:34;13.80;;;12.78;;
17449;SDS011;8842;51.244;7.102;2023-05-15T10:27:40;12.50;;;11.80;;
17449;SDS011;8842;51.244;7.102;2023-05-15T10:32:45;13.58;;;12.78;;
17449;SDS011;8842;51.244;7.102;2023-05-15T10:37:50;13.60;;;12.70;;
17449;SDS011;8842;51.244;7.102;2023-05-15T10:43:02;12.73;;;12.03;;
17449;SDS011;8842;51.244;7.102;2023-05-15T10:48:07;12.82;;;12.13;;
17449;SDS011;8842;51.244;7.102;2023-05-15T10:58:24;12.03;;;11.33;;
17449;SDS011;8842;51.244;7.102;2023-05-15T11:03:35;12.75;;;11.95;;
17449;SDS011;8842;51.244;7.102;2023-05-15T11:08:40;12.15;;;11.45;;
17449;SDS011;8842;51.244;7.102;2023-05-15T11:19:30;13.13;;;12.25;;
17449;SDS011;8842;51.244;7.102;2023-05-15T11:24:48;14.70;;;12.90;;
17449;SDS011;8842;51.244;7.102;2023-05-15T11:30:08;14.23;;;13.22;;
17449;SDS011;8842;51.244;7.102;2023-05-15T11:35:17;14.38;;;13.58;;
17449;SDS011;8842;51.244;7.102;2023-05-15T11:40:30;14.98;;;14.07;;
17449;SDS011;8842;51.244;7.102;2023-05-15T11:49:24;14.68;;;13.88;;
17449;SDS011;8842;51.244;7.102;2023-05-15T11:54:29;15.40;;;14.47;;
17449;SDS011;8842;51.244;7.102;2023-05-15T11:59:33;15.15;;;14.25;;
17449;SDS011;8842;51.244;7.102;2023-05-15T12:04:37;15.00;;;14.10;;
17449;SDS011;8842;51.244;7.102;2023-05-15T12:09:41;14.60;;;13.80;;
17449;SDS011;8842;51.244;7.102;2023-05-15T12:14:53;14.80;;;13.90;;
17449;SDS011;8842;51.244;7.102;2023-05-15T12:20:01;15.32;;;14.33;;
17449;SDS011;8842;51.244;7.102;2023-05-15T12:25:07;14.58;;;13.78;;
17449;SDS011;8842;51.244;7.102;2023-05-15T12:30:13;13.90;;;13.10;;
17449;SDS011;8842;51.244;7.102;2023-05-15T12:35:17;13.68;;;12.88;;
17449;SDS011;8842;51.244;7.102;2023-05-15T12:40:22;13.00;;;12.30;;
17449;SDS011;8842;51.244;7.102;2023-05-15T12:45:26;13.43;;;12.73;;
17449;SDS011;8842;51.244;7.102;2023-05-15T12:50:31;13.20;;;12.50;;
17449;SDS011;8842;51.244;7.102;2023-05-15T12:55:36;13.65;;;12.85;;
17449;SDS011;8842;51.244;7.102;2023-05-15T13:00:49;13.18;;;12.47;;
17449;SDS011;8842;51.244;7.102;2023-05-15T13:05:54;13.48;;;12.68;;
17449;SDS011;8842;51.244;7.102;2023-05-15T13:11:09;12.80;;;12.10;;
17449;SDS011;8842;51.244;7.102;2023-05-15T13:21:31;11.95;;;11.35;;
17449;SDS011;8842;51.244;7.102;2023-05-15T13:26:36;11.45;;;10.85;;
17449;SDS011;8842;51.244;7.102;2023-05-15T13:31:40;12.10;;;11.40;;
17449;SDS011;8842;51.244;7.102;2023-05-15T13:36:51;11.20;;;10.60;;
17449;SDS011;8842;51.244;7.102;2023-05-15T13:41:55;11.60;;;11.00;;
17449;SDS011;8842;51.244;7.102;2023-05-15T13:47:00;11.00;;;10.40;;
17449;SDS011;8842;51.244;7.102;2023-05-15T13:52:06;11.85;;;11.18;;
17449;SDS011;8842;51.244;7.102;2023-05-15T13:57:10;11.55;;;10.95;;
17449;SDS011;8842;51.244;7.102;2023-05-15T14:02:21;11.45;;;10.85;;
17449;SDS011;8842;51.244;7.102;2023-05-15T14:07:27;11.30;;;10.60;;
17449;SDS011;8842;51.244;7.102;2023-05-15T14:12:31;11.08;;;10.40;;
17449;SDS011;8842;51.244;7.102;2023-05-15T14:17:43;10.28;;;9.78;;
17449;SDS011;8842;51.244;7.102;2023-05-15T14:22:49;10.20;;;9.60;;
17449;SDS011;8842;51.244;7.102;2023-05-15T14:28:01;10.55;;;10.00;;
17449;SDS011;8842;51.244;7.102;2023-05-15T14:33:05;10.40;;;9.80;;
17449;SDS011;8842;51.244;7.102;2023-05-15T14:38:17;10.90;;;10.20;;
17449;SDS011;8842;51.244;7.102;2023-05-15T14:43:20;11.48;;;10.88;;
17449;SDS011;8842;51.244;7.102;2023-05-15T14:48:26;11.30;;;10.60;;
17449;SDS011;8842;51.244;7.102;2023-05-15T14:53:31;10.70;;;10.10;;
17449;SDS011;8842;51.244;7.102;2023-05-15T14:58:36;10.75;;;10.15;;
17449;SDS011;8842;51.244;7.102;2023-05-15T15:03:40;10.63;;;10.03;;
17449;SDS011;8842;51.244;7.102;2023-05-15T15:08:52;11.05;;;10.35;;
17449;SDS011;8842;51.244;7.102;2023-05-15T15:13:56;11.40;;;10.80;;
17449;SDS011;8842;51.244;7.102;2023-05-15T15:19:01;10.93;;;10.33;;
17449;SDS011;8842;51.244;7.102;2023-05-15T15:24:07;12.63;;;11.83;;
17449;SDS011;8842;51.244;7.102;2023-05-15T15:29:25;12.27;;;11.53;;
17449;SDS011;8842;51.244;7.102;2023-05-15T15:34:29;12.05;;;11.35;;
17449;SDS011;8842;51.244;7.102;2023-05-15T15:39:33;11.80;;;11.10;;
17449;SDS011;8842;51.244;7.102;2023-05-15T15:44:45;11.67;;;10.87;;
17449;SDS011;8842;51.244;7.102;2023-05-15T15:49:49;11.12;;;10.53;;
17449;SDS011;8842;51.244;7.102;2023-05-15T15:55:01;12.37;;;11.67;;
17449;SDS011;8842;51.244;7.102;2023-05-15T16:00:08;11.18;;;10.58;;
17449;SDS011;8842;51.244;7.102;2023-05-15T16:10:25;12.33;;;11.63;;
17449;SDS011;8842;51.244;7.102;2023-05-15T16:15:29;11.90;;;11.13;;
17449;SDS011;8842;51.244;7.102;2023-05-15T16:20:41;12.63;;;11.93;;
17449;SDS011;8842;51.244;7.102;2023-05-15T16:25:45;12.73;;;11.93;;
17449;SDS011;8842;51.244;7.102;2023-05-15T16:30:59;13.03;;;12.13;;
17449;SDS011;8842;51.244;7.102;2023-05-15T16:36:04;13.73;;;12.63;;
17449;SDS011;8842;51.244;7.102;2023-05-15T16:41:16;11.63;;;10.93;;
17449;SDS011;8842;51.244;7.102;2023-05-15T16:46:20;12.43;;;11.63;;
17449;SDS011;8842;51.244;7.102;2023-05-15T16:51:24;12.47;;;11.67;;
17449;SDS011;8842;51.244;7.102;2023-05-15T16:56:28;12.03;;;11.03;;
17449;SDS011;8842;51.244;7.102;2023-05-15T17:01:40;12.37;;;11.67;;
17449;SDS011;8842;51.244;7.102;2023-05-15T17:06:44;11.77;;;11.07;;
17449;SDS011;8842;51.244;7.102;2023-05-15T17:11:56;11.83;;;11.03;;
17449;SDS011;8842;51.244;7.102;2023-05-15T17:17:01;11.73;;;11.03;;
17449;SDS011;8842;51.244;7.102;2023-05-15T17:22:05;13.20;;;12.30;;
17449;SDS011;8842;51.244;7.102;2023-05-15T17:27:09;12.17;;;11.37;;
17449;SDS011;8842;51.244;7.102;2023-05-15T17:32:14;10.83;;;10.27;;
17449;SDS011;8842;51.244;7.102;2023-05-15T17:37:26;11.30;;;10.70;;
17449;SDS011;8842;51.244;7.102;2023-05-15T17:42:30;11.40;;;10.80;;
17449;SDS011;8842;51.244;7.102;2023-05-15T17:47:44;11.90;;;11.10;;
17449;SDS011;8842;51.244;7.102;2023-05-15T17:52:48;11.90;;;11.23;;
17449;SDS011;8842;51.244;7.102;2023-05-15T17:58:00;11.20;;;10.60;;
17449;SDS011;8842;51.244;7.102;2023-05-15T18:03:04;11.10;;;10.43;;
17449;SDS011;8842;51.244;7.102;2023-05-15T18:08:16;11.33;;;10.70;;
17449;SDS011;8842;51.244;7.102;2023-05-15T18:13:20;11.40;;;10.80;;
17449;SDS011;8842;51.244;7.102;2023-05-15T18:18:24;11.63;;;10.90;;
17449;SDS011;8842;51.244;7.102;2023-05-15T18:23:36;11.40;;;10.80;;
17449;SDS011;8842;51.244;7.102;2023-05-15T18:28:40;11.30;;;10.60;;
17449;SDS011;8842;51.244;7.102;2023-05-15T18:33:52;11.53;;;10.63;;
17449;SDS011;8842;51.244;7.102;2023-05-15T18:38:56;10.97;;;10.37;;
17449;SDS011;8842;51.244;7.102;2023-05-15T18:44:08;11.00;;;10.40;;
17449;SDS011;8842;51.244;7.102;2023-05-15T18:49:12;11.20;;;10.60;;
17449;SDS011;8842;51.244;7.102;2023-05-15T18:54:18;10.90;;;10.30;;
17449;SDS011;8842;51.244;7.102;2023-05-15T18:59:22;11.07;;;10.47;;
17449;SDS011;8842;51.244;7.102;2023-05-15T19:04:26;10.97;;;10.37;;
17449;SDS011;8842;51.244;7.102;2023-05-15T19:09:38;11.10;;;10.50;;
17449;SDS011;8842;51.244;7.102;2023-05-15T19:14:42;11.10;;;10.40;;
17449;SDS011;8842;51.244;7.102;2023-05-15T19:19:53;11.10;;;10.50;;
17449;SDS011;8842;51.244;7.102;2023-05-15T19:24:58;11.47;;;10.70;;
17449;SDS011;8842;51.244;7.102;2023-05-15T19:30:02;10.70;;;10.10;;
17449;SDS011;8842;51.244;7.102;2023-05-15T19:35:14;11.23;;;10.30;;
17449;SDS011;8842;51.244;7.102;2023-05-15T19:40:18;10.10;;;9.60;;
17449;SDS011;8842;51.244;7.102;2023-05-15T19:45:23;10.80;;;10.20;;
17449;SDS011;8842;51.244;7.102;2023-05-15T19:50:27;10.53;;;10.00;;
17449;SDS011;8842;51.244;7.102;2023-05-15T19:55:31;11.57;;;10.67;;
17449;SDS011;8842;51.244;7.102;2023-05-15T20:00:42;10.63;;;10.03;;
17449;SDS011;8842;51.244;7.102;2023-05-15T20:05:47;10.00;;;9.50;;
17449;SDS011;8842;51.244;7.102;2023-05-15T20:10:52;10.30;;;9.80;;
17449;SDS011;8842;51.244;7.102;2023-05-15T20:15:57;10.70;;;9.90;;
17449;SDS011;8842;51.244;7.102;2023-05-15T20:21:09;10.43;;;9.93;;
17449;SDS011;8842;51.244;7.102;2023-05-15T20:26:13;11.17;;;10.57;;
17449;SDS011;8842;51.244;7.102;2023-05-15T20:31:25;11.67;;;10.37;;
17449;SDS011;8842;51.244;7.102;2023-05-15T20:36:29;11.13;;;10.37;;
17449;SDS011;8842;51.244;7.102;2023-05-15T20:41:34;11.53;;;10.63;;
17449;SDS011;8842;51.244;7.102;2023-05-15T20:46:45;10.97;;;10.23;;
17449;SDS011;8842;51.244;7.102;2023-05-15T20:51:49;10.57;;;9.97;;
17449;SDS011;8842;51.244;7.102;2023-05-15T20:56:54;10.23;;;9.73;;
17449;SDS011;8842;51.244;7.102;2023-05-15T21:02:05;9.50;;;9.00;;
17449;SDS011;8842;51.244;7.102;2023-05-15T21:07:10;10.00;;;9.50;;
17449;SDS011;8842;51.244;7.102;2023-05-15T21:12:21;10.30;;;9.70;;
17449;SDS011;8842;51.244;7.102;2023-05-15T21:17:25;10.53;;;9.93;;
17449;SDS011;8842;51.244;7.102;2023-05-15T21:22:30;10.50;;;9.90;;
17449;SDS011;8842;51.244;7.102;2023-05-15T21:27:41;10.20;;;9.70;;
17449;SDS011;8842;51.244;7.102;2023-05-15T21:32:45;10.73;;;10.13;;
17449;SDS011;8842;51.244;7.102;2023-05-15T21:37:57;10.80;;;10.20;;
17449;SDS011;8842;51.244;7.102;2023-05-15T21:43:01;11.20;;;10.50;;
17449;SDS011;8842;51.244;7.102;2023-05-15T21:48:13;10.60;;;10.00;;
17449;SDS011;8842;51.244;7.102;2023-05-15T21:53:17;10.77;;;10.17;;
17449;SDS011;8842;51.244;7.102;2023-05-15T21:58:21;10.30;;;9.70;;
17449;SDS011;8842;51.244;7.102;2023-05-15T22:03:33;10.10;;;9.50;;
17449;SDS011;8842;51.244;7.102;2023-05-15T22:08:37;10.10;;;9.50;;
17449;SDS011;8842;51.244;7.102;2023-05-15T22:13:51;10.33;;;9.83;;
17449;SDS011;8842;51.244;7.102;2023-05-15T22:19:03;10.17;;;9.67;;
17449;SDS011;8842;51.244;7.102;2023-05-15T22:24:07;10.50;;;9.90;;
17449;SDS011;8842;51.244;7.102;2023-05-15T22:29:21;10.60;;;10.00;;
17449;SDS011;8842;51.244;7.102;2023-05-15T22:34:25;10.00;;;9.50;;
17449;SDS011;8842;51.244;7.102;2023-05-15T22:39:31;10.30;;;9.60;;
17449;SDS011;8842;51.244;7.102;2023-05-15T22:44:43;10.33;;;9.73;;
17449;SDS011;8842;51.244;7.102;2023-05-15T22:49:47;10.83;;;10.23;;
17449;SDS011;8842;51.244;7.102;2023-05-15T22:54:59;10.83;;;10.23;;
17449;SDS011;8842;51.244;7.102;2023-05-15T23:00:03;11.17;;;10.57;;
17449;SDS011;8842;51.244;7.102;2023-05-15T23:05:16;11.33;;;10.60;;
17449;SDS011;8842;51.244;7.102;2023-05-15T23:10:28;11.20;;;10.60;;
17449;SDS011;8842;51.244;7.102;2023-05-15T23:15:32;12.10;;;11.50;;
17449;SDS011;8842;51.244;7.102;2023-05-15T23:20:36;12.63;;;11.83;;
17449;SDS011;8842;51.244;7.102;2023-05-15T23:25:48;13.10;;;12.40;;
17449;SDS011;8842;51.244;7.102;2023-05-15T23:30:52;13.00;;;12.30;;
17449;SDS011;8842;51.244;7.102;2023-05-15T23:35:56;12.80;;;12.10;;
17449;SDS011;8842;51.244;7.102;2023-05-15T23:41:08;12.83;;;12.13;;
17449;SDS011;8842;51.244;7.102;2023-05-15T23:51:23;13.27;;;12.57;;
17449;SDS011;8842;51.244;7.102;2023-05-15T23:56:27;12.90;;;12.20;;
